sensor_id;sensor_type;location;lat;lon;timestamp;P1;durP1;ratioP1;P2;durP2;ratioP2
56319;SDS011;42226;42.382;23.748;2023-12-22T00:00:03;8.35;;;7.55;;
56319;SDS011;42226;42.382;23.748;2023-12-22T00:02:31;7.90;;;6.90;;
56319;SDS011;42226;42.382;23.748;2023-12-22T00:04:59;8.50;;;7.60;;
56319;SDS011;42226;42.382;23.748;2023-12-22T00:07:26;7.90;;;7.20;;
56319;SDS011;42226;42.382;23.748;2023-12-22T00:09:53;7.97;;;7.18;;
56319;SDS011;42226;42.382;23.748;2023-12-22T00:12:20;7.60;;;6.90;;
56319;SDS011;42226;42.382;23.748;2023-12-22T00:14:48;7.75;;;7.05;;
56319;SDS011;42226;42.382;23.748;2023-12-22T00:17:14;8.27;;;7.50;;
56319;SDS011;42226;42.382;23.748;2023-12-22T00:19:42;7.85;;;7.20;;
56319;SDS011;42226;42.382;23.748;2023-12-22T00:22:08;8.00;;;7.30;;
56319;SDS011;42226;42.382;23.748;2023-12-22T00:24:36;8.35;;;7.50;;
56319;SDS011;42226;42.382;23.748;2023-12-22T00:27:05;8.40;;;7.60;;
56319;SDS011;42226;42.382;23.748;2023-12-22T00:29:36;8.32;;;7.50;;
56319;SDS011;42226;42.382;23.748;2023-12-22T00:32:04;8.90;;;7.60;;
56319;SDS011;42226;42.382;23.748;2023-12-22T00:34:35;8.48;;;7.50;;
56319;SDS011;42226;42.382;23.748;2023-12-22T00:37:03;8.80;;;7.70;;
56319;SDS011;42226;42.382;23.748;2023-12-22T00:39:33;8.88;;;7.68;;
56319;SDS011;42226;42.382;23.748;2023-12-22T00:42:01;7.60;;;6.90;;
56319;SDS011;42226;42.382;23.748;2023-12-22T00:44:30;8.13;;;7.20;;
56319;SDS011;42226;42.382;23.748;2023-12-22T00:46:57;7.85;;;7.15;;
56319;SDS011;42226;42.382;23.748;2023-12-22T00:49:24;8.48;;;7.68;;
56319;SDS011;42226;42.382;23.748;2023-12-22T00:51:51;8.68;;;7.78;;
56319;SDS011;42226;42.382;23.748;2023-12-22T00:54:18;9.40;;;7.20;;
56319;SDS011;42226;42.382;23.748;2023-12-22T00:56:46;8.93;;;7.43;;
56319;SDS011;42226;42.382;23.748;2023-12-22T00:59:12;8.27;;;7.57;;
56319;SDS011;42226;42.382;23.748;2023-12-22T01:01:40;9.75;;;8.32;;
56319;SDS011;42226;42.382;23.748;2023-12-22T01:04:08;11.77;;;8.25;;
56319;SDS011;42226;42.382;23.748;2023-12-22T01:06:39;12.98;;;9.02;;
56319;SDS011;42226;42.382;23.748;2023-12-22T01:09:07;14.45;;;9.85;;
56319;SDS011;42226;42.382;23.748;2023-12-22T01:11:34;20.55;;;12.18;;
56319;SDS011;42226;42.382;23.748;2023-12-22T01:14:02;14.35;;;10.60;;
56319;SDS011;42226;42.382;23.748;2023-12-22T01:16:29;14.55;;;10.70;;
56319;SDS011;42226;42.382;23.748;2023-12-22T01:18:58;11.10;;;9.35;;
56319;SDS011;42226;42.382;23.748;2023-12-22T01:21:25;8.90;;;8.00;;
56319;SDS011;42226;42.382;23.748;2023-12-22T01:23:52;9.65;;;8.43;;
56319;SDS011;42226;42.382;23.748;2023-12-22T01:26:19;9.35;;;8.40;;
56319;SDS011;42226;42.382;23.748;2023-12-22T01:28:47;8.32;;;7.63;;
56319;SDS011;42226;42.382;23.748;2023-12-22T01:31:14;9.10;;;7.90;;
56319;SDS011;42226;42.382;23.748;2023-12-22T01:33:42;9.85;;;7.85;;
56319;SDS011;42226;42.382;23.748;2023-12-22T01:39:51;8.45;;;6.90;;
56319;SDS011;42226;42.382;23.748;2023-12-22T01:42:19;7.28;;;6.65;;
56319;SDS011;42226;42.382;23.748;2023-12-22T01:44:47;7.40;;;6.80;;
56319;SDS011;42226;42.382;23.748;2023-12-22T01:47:14;7.70;;;6.97;;
56319;SDS011;42226;42.382;23.748;2023-12-22T01:49:42;7.65;;;6.80;;
56319;SDS011;42226;42.382;23.748;2023-12-22T01:52:10;7.70;;;6.82;;
56319;SDS011;42226;42.382;23.748;2023-12-22T01:54:38;7.65;;;6.93;;
56319;SDS011;42226;42.382;23.748;2023-12-22T01:57:05;7.65;;;6.95;;
56319;SDS011;42226;42.382;23.748;2023-12-22T01:59:32;7.47;;;6.88;;
56319;SDS011;42226;42.382;23.748;2023-12-22T02:02:02;7.72;;;6.97;;
56319;SDS011;42226;42.382;23.748;2023-12-22T02:04:30;7.65;;;6.75;;
56319;SDS011;42226;42.382;23.748;2023-12-22T02:06:58;7.80;;;7.10;;
56319;SDS011;42226;42.382;23.748;2023-12-22T02:09:28;8.05;;;7.00;;
56319;SDS011;42226;42.382;23.748;2023-12-22T02:11:56;7.97;;;7.18;;
56319;SDS011;42226;42.382;23.748;2023-12-22T02:14:23;7.65;;;6.95;;
56319;SDS011;42226;42.382;23.748;2023-12-22T02:17:01;7.13;;;6.53;;
56319;SDS011;42226;42.382;23.748;2023-12-22T02:20:11;7.18;;;6.50;;
56319;SDS011;42226;42.382;23.748;2023-12-22T02:22:39;7.20;;;6.55;;
56319;SDS011;42226;42.382;23.748;2023-12-22T02:25:06;7.97;;;7.28;;
56319;SDS011;42226;42.382;23.748;2023-12-22T02:27:34;8.35;;;7.22;;
56319;SDS011;42226;42.382;23.748;2023-12-22T02:30:22;7.63;;;6.93;;
56319;SDS011;42226;42.382;23.748;2023-12-22T02:35:29;7.18;;;6.50;;
56319;SDS011;42226;42.382;23.748;2023-12-22T02:37:58;6.97;;;6.38;;
56319;SDS011;42226;42.382;23.748;2023-12-22T02:40:27;6.35;;;5.78;;
56319;SDS011;42226;42.382;23.748;2023-12-22T02:42:54;6.53;;;5.93;;
56319;SDS011;42226;42.382;23.748;2023-12-22T02:45:22;6.60;;;6.10;;
56319;SDS011;42226;42.382;23.748;2023-12-22T02:47:50;5.82;;;5.43;;
56319;SDS011;42226;42.382;23.748;2023-12-22T02:50:17;6.18;;;5.78;;
56319;SDS011;42226;42.382;23.748;2023-12-22T02:52:44;6.10;;;5.60;;
56319;SDS011;42226;42.382;23.748;2023-12-22T02:55:12;6.10;;;5.70;;
56319;SDS011;42226;42.382;23.748;2023-12-22T02:57:39;6.10;;;5.70;;
56319;SDS011;42226;42.382;23.748;2023-12-22T03:00:07;6.00;;;5.63;;
56319;SDS011;42226;42.382;23.748;2023-12-22T03:02:34;5.50;;;5.10;;
56319;SDS011;42226;42.382;23.748;2023-12-22T03:05:02;6.20;;;5.60;;
56319;SDS011;42226;42.382;23.748;2023-12-22T03:07:31;6.03;;;5.60;;
56319;SDS011;42226;42.382;23.748;2023-12-22T03:09:58;5.82;;;5.35;;
56319;SDS011;42226;42.382;23.748;2023-12-22T03:12:25;5.90;;;5.40;;
56319;SDS011;42226;42.382;23.748;2023-12-22T03:14:52;5.05;;;4.75;;
56319;SDS011;42226;42.382;23.748;2023-12-22T03:17:20;5.70;;;5.30;;
56319;SDS011;42226;42.382;23.748;2023-12-22T03:19:46;5.57;;;5.28;;
56319;SDS011;42226;42.382;23.748;2023-12-22T03:22:13;5.85;;;5.35;;
56319;SDS011;42226;42.382;23.748;2023-12-22T03:24:40;5.72;;;5.32;;
56319;SDS011;42226;42.382;23.748;2023-12-22T03:27:07;5.60;;;5.20;;
56319;SDS011;42226;42.382;23.748;2023-12-22T03:29:34;6.07;;;5.68;;
56319;SDS011;42226;42.382;23.748;2023-12-22T03:32:01;5.90;;;5.50;;
56319;SDS011;42226;42.382;23.748;2023-12-22T03:34:29;5.55;;;5.15;;
56319;SDS011;42226;42.382;23.748;2023-12-22T03:36:57;5.45;;;5.15;;
56319;SDS011;42226;42.382;23.748;2023-12-22T03:39:24;6.57;;;5.93;;
56319;SDS011;42226;42.382;23.748;2023-12-22T03:41:51;5.80;;;5.30;;
56319;SDS011;42226;42.382;23.748;2023-12-22T03:44:18;5.78;;;5.40;;
56319;SDS011;42226;42.382;23.748;2023-12-22T03:46:45;6.22;;;5.72;;
56319;SDS011;42226;42.382;23.748;2023-12-22T08:14:21;5.40;;;5.10;;
56319;SDS011;42226;42.382;23.748;2023-12-22T08:16:48;5.10;;;4.80;;
56319;SDS011;42226;42.382;23.748;2023-12-22T08:19:15;4.95;;;4.65;;
56319;SDS011;42226;42.382;23.748;2023-12-22T08:21:43;4.85;;;4.65;;
56319;SDS011;42226;42.382;23.748;2023-12-22T08:24:12;5.18;;;4.88;;
56319;SDS011;42226;42.382;23.748;2023-12-22T08:26:39;5.18;;;4.88;;
56319;SDS011;42226;42.382;23.748;2023-12-22T08:29:07;5.00;;;4.70;;
56319;SDS011;42226;42.382;23.748;2023-12-22T08:31:34;4.90;;;4.68;;
56319;SDS011;42226;42.382;23.748;2023-12-22T08:34:01;5.15;;;4.88;;
56319;SDS011;42226;42.382;23.748;2023-12-22T08:36:31;5.22;;;4.93;;
56319;SDS011;42226;42.382;23.748;2023-12-22T08:38:58;5.30;;;5.00;;
56319;SDS011;42226;42.382;23.748;2023-12-22T08:41:25;5.10;;;4.80;;
56319;SDS011;42226;42.382;23.748;2023-12-22T08:43:52;5.13;;;4.82;;
56319;SDS011;42226;42.382;23.748;2023-12-22T08:46:19;5.28;;;4.97;;
56319;SDS011;42226;42.382;23.748;2023-12-22T08:51:57;5.45;;;5.05;;
56319;SDS011;42226;42.382;23.748;2023-12-22T08:54:24;5.05;;;4.75;;
56319;SDS011;42226;42.382;23.748;2023-12-22T08:56:51;5.50;;;5.20;;
56319;SDS011;42226;42.382;23.748;2023-12-22T08:59:19;5.43;;;5.13;;
56319;SDS011;42226;42.382;23.748;2023-12-22T09:01:47;5.15;;;4.85;;
56319;SDS011;42226;42.382;23.748;2023-12-22T09:04:15;5.20;;;4.90;;
56319;SDS011;42226;42.382;23.748;2023-12-22T09:06:42;5.25;;;4.95;;
56319;SDS011;42226;42.382;23.748;2023-12-22T09:09:10;4.88;;;4.68;;
56319;SDS011;42226;42.382;23.748;2023-12-22T09:11:37;5.25;;;4.95;;
56319;SDS011;42226;42.382;23.748;2023-12-22T09:14:07;5.13;;;4.82;;
56319;SDS011;42226;42.382;23.748;2023-12-22T09:16:37;4.82;;;4.63;;
56319;SDS011;42226;42.382;23.748;2023-12-22T09:19:04;5.00;;;4.70;;
56319;SDS011;42226;42.382;23.748;2023-12-22T09:21:32;5.35;;;5.05;;
56319;SDS011;42226;42.382;23.748;2023-12-22T09:23:58;5.15;;;4.93;;
56319;SDS011;42226;42.382;23.748;2023-12-22T09:26:25;5.22;;;4.90;;
56319;SDS011;42226;42.382;23.748;2023-12-22T09:28:54;5.05;;;4.75;;
56319;SDS011;42226;42.382;23.748;2023-12-22T09:31:22;5.00;;;4.70;;
56319;SDS011;42226;42.382;23.748;2023-12-22T09:33:50;5.10;;;4.80;;
56319;SDS011;42226;42.382;23.748;2023-12-22T09:36:17;4.90;;;4.60;;
56319;SDS011;42226;42.382;23.748;2023-12-22T09:38:44;4.70;;;4.50;;
56319;SDS011;42226;42.382;23.748;2023-12-22T09:43:59;4.90;;;4.70;;
56319;SDS011;42226;42.382;23.748;2023-12-22T09:46:28;4.88;;;4.57;;
56319;SDS011;42226;42.382;23.748;2023-12-22T09:48:59;4.80;;;4.60;;
56319;SDS011;42226;42.382;23.748;2023-12-22T09:51:27;5.13;;;4.90;;
56319;SDS011;42226;42.382;23.748;2023-12-22T09:53:58;5.30;;;5.00;;
56319;SDS011;42226;42.382;23.748;2023-12-22T09:56:27;5.00;;;4.70;;
56319;SDS011;42226;42.382;23.748;2023-12-22T09:58:55;4.68;;;4.45;;
56319;SDS011;42226;42.382;23.748;2023-12-22T10:01:24;4.70;;;4.50;;
56319;SDS011;42226;42.382;23.748;2023-12-22T10:03:53;4.63;;;4.43;;
56319;SDS011;42226;42.382;23.748;2023-12-22T10:06:21;5.05;;;4.80;;
56319;SDS011;42226;42.382;23.748;2023-12-22T10:08:49;5.10;;;4.80;;
56319;SDS011;42226;42.382;23.748;2023-12-22T10:11:18;4.70;;;4.50;;
56319;SDS011;42226;42.382;23.748;2023-12-22T10:13:47;4.80;;;4.60;;
56319;SDS011;42226;42.382;23.748;2023-12-22T10:16:17;4.65;;;4.40;;
56319;SDS011;42226;42.382;23.748;2023-12-22T10:18:46;4.70;;;4.50;;
56319;SDS011;42226;42.382;23.748;2023-12-22T10:21:13;4.53;;;4.32;;
56319;SDS011;42226;42.382;23.748;2023-12-22T10:23:41;4.70;;;4.50;;
56319;SDS011;42226;42.382;23.748;2023-12-22T10:26:10;4.50;;;4.30;;
56319;SDS011;42226;42.382;23.748;2023-12-22T10:28:40;4.60;;;4.40;;
56319;SDS011;42226;42.382;23.748;2023-12-22T10:31:07;4.60;;;4.40;;
56319;SDS011;42226;42.382;23.748;2023-12-22T10:33:35;5.00;;;4.70;;
56319;SDS011;42226;42.382;23.748;2023-12-22T10:36:03;4.70;;;4.50;;
56319;SDS011;42226;42.382;23.748;2023-12-22T10:38:33;4.70;;;4.50;;
56319;SDS011;42226;42.382;23.748;2023-12-22T10:41:02;4.53;;;4.32;;
56319;SDS011;42226;42.382;23.748;2023-12-22T10:43:39;4.80;;;4.60;;
56319;SDS011;42226;42.382;23.748;2023-12-22T10:46:06;4.70;;;4.50;;
56319;SDS011;42226;42.382;23.748;2023-12-22T10:48:37;4.85;;;4.65;;
56319;SDS011;42226;42.382;23.748;2023-12-22T10:51:08;4.90;;;4.70;;
56319;SDS011;42226;42.382;23.748;2023-12-22T10:53:40;4.80;;;4.60;;
56319;SDS011;42226;42.382;23.748;2023-12-22T10:56:08;4.63;;;4.43;;
56319;SDS011;42226;42.382;23.748;2023-12-22T10:58:36;4.50;;;4.30;;
56319;SDS011;42226;42.382;23.748;2023-12-22T11:01:06;4.70;;;4.50;;
56319;SDS011;42226;42.382;23.748;2023-12-22T11:03:35;4.70;;;4.50;;
56319;SDS011;42226;42.382;23.748;2023-12-22T11:06:10;4.80;;;4.60;;
56319;SDS011;42226;42.382;23.748;2023-12-22T11:08:38;4.80;;;4.57;;
56319;SDS011;42226;42.382;23.748;2023-12-22T11:11:13;4.60;;;4.40;;
56319;SDS011;42226;42.382;23.748;2023-12-22T11:13:53;4.70;;;4.50;;
56319;SDS011;42226;42.382;23.748;2023-12-22T11:16:21;4.60;;;4.40;;
56319;SDS011;42226;42.382;23.748;2023-12-22T11:18:50;4.60;;;4.40;;
56319;SDS011;42226;42.382;23.748;2023-12-22T11:21:23;4.75;;;4.47;;
56319;SDS011;42226;42.382;23.748;2023-12-22T11:23:53;4.43;;;4.22;;
56319;SDS011;42226;42.382;23.748;2023-12-22T11:26:30;4.72;;;4.50;;
56319;SDS011;42226;42.382;23.748;2023-12-22T11:28:59;4.68;;;4.47;;
56319;SDS011;42226;42.382;23.748;2023-12-22T11:31:27;4.47;;;4.28;;
56319;SDS011;42226;42.382;23.748;2023-12-22T11:34:02;4.57;;;4.38;;
56319;SDS011;42226;42.382;23.748;2023-12-22T11:36:33;4.60;;;4.40;;
56319;SDS011;42226;42.382;23.748;2023-12-22T11:39:03;4.68;;;4.47;;
56319;SDS011;42226;42.382;23.748;2023-12-22T11:41:32;4.78;;;4.57;;
56319;SDS011;42226;42.382;23.748;2023-12-22T11:44:02;4.75;;;4.53;;
56319;SDS011;42226;42.382;23.748;2023-12-22T11:46:32;4.70;;;4.50;;
56319;SDS011;42226;42.382;23.748;2023-12-22T11:49:00;4.50;;;4.30;;
56319;SDS011;42226;42.382;23.748;2023-12-22T11:51:31;4.75;;;4.55;;
56319;SDS011;42226;42.382;23.748;2023-12-22T11:54:00;4.85;;;4.63;;
56319;SDS011;42226;42.382;23.748;2023-12-22T11:56:27;4.50;;;4.30;;
56319;SDS011;42226;42.382;23.748;2023-12-22T11:58:59;4.60;;;4.40;;
56319;SDS011;42226;42.382;23.748;2023-12-22T12:01:26;4.63;;;4.43;;
56319;SDS011;42226;42.382;23.748;2023-12-22T12:03:58;4.65;;;4.45;;
56319;SDS011;42226;42.382;23.748;2023-12-22T12:08:57;4.55;;;4.35;;
56319;SDS011;42226;42.382;23.748;2023-12-22T12:14:23;4.70;;;4.45;;
56319;SDS011;42226;42.382;23.748;2023-12-22T12:19:35;4.40;;;4.20;;
56319;SDS011;42226;42.382;23.748;2023-12-22T12:22:07;4.47;;;4.28;;
56319;SDS011;42226;42.382;23.748;2023-12-22T12:24:36;4.68;;;4.40;;
56319;SDS011;42226;42.382;23.748;2023-12-22T12:27:04;4.50;;;4.30;;
56319;SDS011;42226;42.382;23.748;2023-12-22T12:29:32;4.30;;;4.10;;
56319;SDS011;42226;42.382;23.748;2023-12-22T12:32:03;4.47;;;4.25;;
56319;SDS011;42226;42.382;23.748;2023-12-22T12:34:31;4.40;;;4.20;;
56319;SDS011;42226;42.382;23.748;2023-12-22T12:36:59;4.28;;;4.07;;
56319;SDS011;42226;42.382;23.748;2023-12-22T12:39:29;4.43;;;4.22;;
56319;SDS011;42226;42.382;23.748;2023-12-22T12:42:00;4.40;;;4.20;;
56319;SDS011;42226;42.382;23.748;2023-12-22T12:44:27;4.28;;;4.07;;
56319;SDS011;42226;42.382;23.748;2023-12-22T12:46:58;4.40;;;4.20;;
56319;SDS011;42226;42.382;23.748;2023-12-22T12:49:36;4.30;;;4.10;;
56319;SDS011;42226;42.382;23.748;2023-12-22T12:52:03;4.50;;;4.30;;
56319;SDS011;42226;42.382;23.748;2023-12-22T12:54:31;4.60;;;4.40;;
56319;SDS011;42226;42.382;23.748;2023-12-22T12:56:59;4.57;;;4.38;;
56319;SDS011;42226;42.382;23.748;2023-12-22T12:59:25;4.55;;;4.35;;
56319;SDS011;42226;42.382;23.748;2023-12-22T13:01:53;4.40;;;4.20;;
56319;SDS011;42226;42.382;23.748;2023-12-22T13:04:23;4.30;;;4.10;;
56319;SDS011;42226;42.382;23.748;2023-12-22T13:07:02;4.30;;;4.10;;
56319;SDS011;42226;42.382;23.748;2023-12-22T13:09:33;4.25;;;4.05;;
56319;SDS011;42226;42.382;23.748;2023-12-22T13:12:00;4.35;;;4.15;;
56319;SDS011;42226;42.382;23.748;2023-12-22T13:14:28;4.60;;;4.40;;
56319;SDS011;42226;42.382;23.748;2023-12-22T13:16:56;4.53;;;4.32;;
56319;SDS011;42226;42.382;23.748;2023-12-22T13:19:24;4.40;;;4.20;;
56319;SDS011;42226;42.382;23.748;2023-12-22T13:21:56;4.80;;;4.60;;
56319;SDS011;42226;42.382;23.748;2023-12-22T13:24:24;4.57;;;4.38;;
56319;SDS011;42226;42.382;23.748;2023-12-22T13:27:01;4.60;;;4.40;;
56319;SDS011;42226;42.382;23.748;2023-12-22T13:29:41;4.20;;;4.00;;
56319;SDS011;42226;42.382;23.748;2023-12-22T13:32:14;4.47;;;4.22;;
56319;SDS011;42226;42.382;23.748;2023-12-22T13:34:49;4.35;;;4.15;;
56319;SDS011;42226;42.382;23.748;2023-12-22T13:37:21;4.53;;;4.33;;
56319;SDS011;42226;42.382;23.748;2023-12-22T13:39:52;4.60;;;4.40;;
56319;SDS011;42226;42.382;23.748;2023-12-22T13:42:19;4.50;;;4.30;;
56319;SDS011;42226;42.382;23.748;2023-12-22T13:44:47;4.80;;;4.60;;
56319;SDS011;42226;42.382;23.748;2023-12-22T13:47:16;4.60;;;4.40;;
56319;SDS011;42226;42.382;23.748;2023-12-22T13:49:45;4.53;;;4.32;;
56319;SDS011;42226;42.382;23.748;2023-12-22T13:52:31;4.60;;;4.40;;
56319;SDS011;42226;42.382;23.748;2023-12-22T13:55:00;4.35;;;4.15;;
56319;SDS011;42226;42.382;23.748;2023-12-22T13:57:36;4.30;;;4.10;;
56319;SDS011;42226;42.382;23.748;2023-12-22T14:00:49;4.47;;;4.28;;
56319;SDS011;42226;42.382;23.748;2023-12-22T14:06:00;4.40;;;4.20;;
56319;SDS011;42226;42.382;23.748;2023-12-22T14:08:29;4.70;;;4.43;;
56319;SDS011;42226;42.382;23.748;2023-12-22T14:10:57;4.43;;;4.22;;
56319;SDS011;42226;42.382;23.748;2023-12-22T14:13:24;5.00;;;4.60;;
56319;SDS011;42226;42.382;23.748;2023-12-22T14:15:52;4.60;;;4.30;;
56319;SDS011;42226;42.382;23.748;2023-12-22T14:18:19;4.40;;;4.20;;
56319;SDS011;42226;42.382;23.748;2023-12-22T14:20:46;4.47;;;4.28;;
56319;SDS011;42226;42.382;23.748;2023-12-22T14:23:13;4.80;;;4.50;;
56319;SDS011;42226;42.382;23.748;2023-12-22T14:25:42;4.90;;;4.70;;
56319;SDS011;42226;42.382;23.748;2023-12-22T14:28:10;4.85;;;4.60;;
56319;SDS011;42226;42.382;23.748;2023-12-22T14:30:38;4.90;;;4.70;;
56319;SDS011;42226;42.382;23.748;2023-12-22T14:33:06;4.90;;;4.70;;
56319;SDS011;42226;42.382;23.748;2023-12-22T14:35:33;4.80;;;4.60;;
56319;SDS011;42226;42.382;23.748;2023-12-22T14:38:04;5.10;;;4.80;;
56319;SDS011;42226;42.382;23.748;2023-12-22T14:40:30;5.00;;;4.80;;
56319;SDS011;42226;42.382;23.748;2023-12-22T14:42:57;5.20;;;4.80;;
56319;SDS011;42226;42.382;23.748;2023-12-22T14:45:27;4.78;;;4.57;;
56319;SDS011;42226;42.382;23.748;2023-12-22T14:47:54;4.80;;;4.50;;
56319;SDS011;42226;42.382;23.748;2023-12-22T14:50:21;5.10;;;4.80;;
56319;SDS011;42226;42.382;23.748;2023-12-22T14:52:48;4.40;;;4.20;;
56319;SDS011;42226;42.382;23.748;2023-12-22T14:55:16;4.90;;;4.60;;
56319;SDS011;42226;42.382;23.748;2023-12-22T14:57:44;4.72;;;4.53;;
56319;SDS011;42226;42.382;23.748;2023-12-22T15:00:12;4.60;;;4.40;;
56319;SDS011;42226;42.382;23.748;2023-12-22T15:02:40;4.63;;;4.43;;
56319;SDS011;42226;42.382;23.748;2023-12-22T15:05:07;5.00;;;4.70;;
56319;SDS011;42226;42.382;23.748;2023-12-22T15:07:35;4.57;;;4.38;;
56319;SDS011;42226;42.382;23.748;2023-12-22T15:10:02;5.05;;;4.65;;
56319;SDS011;42226;42.382;23.748;2023-12-22T15:12:32;4.82;;;4.63;;
56319;SDS011;42226;42.382;23.748;2023-12-22T15:15:01;4.90;;;4.60;;
56319;SDS011;42226;42.382;23.748;2023-12-22T15:17:29;4.65;;;4.45;;
56319;SDS011;42226;42.382;23.748;2023-12-22T15:19:57;4.60;;;4.40;;
56319;SDS011;42226;42.382;23.748;2023-12-22T15:22:24;4.85;;;4.55;;
56319;SDS011;42226;42.382;23.748;2023-12-22T15:24:52;4.70;;;4.50;;
56319;SDS011;42226;42.382;23.748;2023-12-22T15:27:19;5.07;;;4.80;;
56319;SDS011;42226;42.382;23.748;2023-12-22T15:29:47;4.90;;;4.60;;
56319;SDS011;42226;42.382;23.748;2023-12-22T15:32:14;5.10;;;4.80;;
56319;SDS011;42226;42.382;23.748;2023-12-22T15:34:42;4.80;;;4.55;;
56319;SDS011;42226;42.382;23.748;2023-12-22T15:37:09;5.72;;;4.80;;
56319;SDS011;42226;42.382;23.748;2023-12-22T15:39:37;5.00;;;4.70;;
56319;SDS011;42226;42.382;23.748;2023-12-22T15:42:04;5.05;;;4.72;;
56319;SDS011;42226;42.382;23.748;2023-12-22T15:44:31;5.32;;;5.03;;
56319;SDS011;42226;42.382;23.748;2023-12-22T15:46:58;5.20;;;4.90;;
56319;SDS011;42226;42.382;23.748;2023-12-22T15:49:25;5.20;;;4.90;;
56319;SDS011;42226;42.382;23.748;2023-12-22T15:51:54;5.10;;;4.80;;
56319;SDS011;42226;42.382;23.748;2023-12-22T15:54:22;5.20;;;4.90;;
56319;SDS011;42226;42.382;23.748;2023-12-22T15:56:49;5.22;;;4.93;;
56319;SDS011;42226;42.382;23.748;2023-12-22T15:59:16;5.07;;;4.78;;
56319;SDS011;42226;42.382;23.748;2023-12-22T16:01:44;5.22;;;4.88;;
56319;SDS011;42226;42.382;23.748;2023-12-22T16:04:13;5.10;;;4.70;;
56319;SDS011;42226;42.382;23.748;2023-12-22T16:06:40;5.20;;;4.90;;
56319;SDS011;42226;42.382;23.748;2023-12-22T16:09:16;5.15;;;4.85;;
56319;SDS011;42226;42.382;23.748;2023-12-22T16:14:12;5.10;;;4.80;;
56319;SDS011;42226;42.382;23.748;2023-12-22T16:16:40;5.43;;;5.13;;
56319;SDS011;42226;42.382;23.748;2023-12-22T16:19:07;5.28;;;4.97;;
56319;SDS011;42226;42.382;23.748;2023-12-22T16:21:50;4.85;;;4.65;;
56319;SDS011;42226;42.382;23.748;2023-12-22T16:24:18;4.78;;;4.57;;
56319;SDS011;42226;42.382;23.748;2023-12-22T16:26:47;4.78;;;4.50;;
56319;SDS011;42226;42.382;23.748;2023-12-22T16:29:13;4.90;;;4.70;;
56319;SDS011;42226;42.382;23.748;2023-12-22T16:31:42;4.70;;;4.40;;
56319;SDS011;42226;42.382;23.748;2023-12-22T16:34:09;5.30;;;5.00;;
56319;SDS011;42226;42.382;23.748;2023-12-22T16:36:37;5.05;;;4.75;;
56319;SDS011;42226;42.382;23.748;2023-12-22T16:39:03;5.22;;;4.82;;
56319;SDS011;42226;42.382;23.748;2023-12-22T16:41:33;4.82;;;4.60;;
56319;SDS011;42226;42.382;23.748;2023-12-22T16:44:05;4.90;;;4.70;;
56319;SDS011;42226;42.382;23.748;2023-12-22T16:46:32;5.20;;;4.90;;
56319;SDS011;42226;42.382;23.748;2023-12-22T16:49:00;4.97;;;4.68;;
56319;SDS011;42226;42.382;23.748;2023-12-22T16:51:29;5.00;;;4.70;;
56319;SDS011;42226;42.382;23.748;2023-12-22T16:53:57;4.90;;;4.70;;
56319;SDS011;42226;42.382;23.748;2023-12-22T16:56:25;5.20;;;4.80;;
56319;SDS011;42226;42.382;23.748;2023-12-22T16:58:52;4.90;;;4.70;;
56319;SDS011;42226;42.382;23.748;2023-12-22T17:01:19;5.10;;;4.80;;
56319;SDS011;42226;42.382;23.748;2023-12-22T17:03:47;4.70;;;4.50;;
56319;SDS011;42226;42.382;23.748;2023-12-22T17:06:13;5.28;;;4.90;;
56319;SDS011;42226;42.382;23.748;2023-12-22T17:08:41;5.30;;;4.93;;
56319;SDS011;42226;42.382;23.748;2023-12-22T17:11:08;5.50;;;5.10;;
56319;SDS011;42226;42.382;23.748;2023-12-22T17:13:36;5.50;;;5.20;;
56319;SDS011;42226;42.382;23.748;2023-12-22T17:16:04;5.20;;;4.90;;
56319;SDS011;42226;42.382;23.748;2023-12-22T17:18:33;4.95;;;4.70;;
56319;SDS011;42226;42.382;23.748;2023-12-22T17:21:00;5.13;;;4.82;;
56319;SDS011;42226;42.382;23.748;2023-12-22T17:23:28;4.93;;;4.70;;
56319;SDS011;42226;42.382;23.748;2023-12-22T17:25:55;5.00;;;4.70;;
56319;SDS011;42226;42.382;23.748;2023-12-22T17:28:22;5.03;;;4.65;;
56319;SDS011;42226;42.382;23.748;2023-12-22T17:30:51;4.70;;;4.50;;
56319;SDS011;42226;42.382;23.748;2023-12-22T17:33:17;5.07;;;4.78;;
56319;SDS011;42226;42.382;23.748;2023-12-22T17:35:45;5.43;;;5.03;;
56319;SDS011;42226;42.382;23.748;2023-12-22T17:38:12;5.57;;;5.18;;
56319;SDS011;42226;42.382;23.748;2023-12-22T17:40:39;5.70;;;5.30;;
56319;SDS011;42226;42.382;23.748;2023-12-22T17:43:07;5.68;;;5.18;;
56319;SDS011;42226;42.382;23.748;2023-12-22T17:45:34;5.35;;;5.05;;
56319;SDS011;42226;42.382;23.748;2023-12-22T17:48:02;5.10;;;4.72;;
56319;SDS011;42226;42.382;23.748;2023-12-22T17:50:29;5.55;;;5.15;;
56319;SDS011;42226;42.382;23.748;2023-12-22T17:52:57;5.38;;;5.07;;
56319;SDS011;42226;42.382;23.748;2023-12-22T17:55:39;5.20;;;4.90;;
56319;SDS011;42226;42.382;23.748;2023-12-22T17:58:07;4.80;;;4.47;;
56319;SDS011;42226;42.382;23.748;2023-12-22T18:00:34;5.00;;;4.70;;
56319;SDS011;42226;42.382;23.748;2023-12-22T18:03:02;5.10;;;4.70;;
56319;SDS011;42226;42.382;23.748;2023-12-22T18:05:29;5.18;;;4.88;;
56319;SDS011;42226;42.382;23.748;2023-12-22T18:07:57;5.10;;;4.80;;
56319;SDS011;42226;42.382;23.748;2023-12-22T18:10:23;5.07;;;4.78;;
56319;SDS011;42226;42.382;23.748;2023-12-22T18:12:51;4.70;;;4.50;;
56319;SDS011;42226;42.382;23.748;2023-12-22T18:15:19;5.07;;;4.78;;
56319;SDS011;42226;42.382;23.748;2023-12-22T18:17:46;5.40;;;5.03;;
56319;SDS011;42226;42.382;23.748;2023-12-22T18:20:14;4.95;;;4.65;;
56319;SDS011;42226;42.382;23.748;2023-12-22T18:22:41;5.10;;;4.80;;
56319;SDS011;42226;42.382;23.748;2023-12-22T18:25:09;6.35;;;5.78;;
56319;SDS011;42226;42.382;23.748;2023-12-22T18:27:36;5.18;;;4.88;;
56319;SDS011;42226;42.382;23.748;2023-12-22T18:30:05;5.20;;;4.90;;
56319;SDS011;42226;42.382;23.748;2023-12-22T18:32:32;5.20;;;4.90;;
56319;SDS011;42226;42.382;23.748;2023-12-22T18:35:00;5.10;;;4.80;;
56319;SDS011;42226;42.382;23.748;2023-12-22T18:37:28;5.00;;;4.70;;
56319;SDS011;42226;42.382;23.748;2023-12-22T18:39:55;5.10;;;4.80;;
56319;SDS011;42226;42.382;23.748;2023-12-22T18:42:22;5.03;;;4.72;;
56319;SDS011;42226;42.382;23.748;2023-12-22T18:44:50;5.32;;;4.93;;
56319;SDS011;42226;42.382;23.748;2023-12-22T18:47:19;5.30;;;5.00;;
56319;SDS011;42226;42.382;23.748;2023-12-22T18:49:46;5.30;;;5.00;;
56319;SDS011;42226;42.382;23.748;2023-12-22T18:52:14;5.40;;;5.00;;
56319;SDS011;42226;42.382;23.748;2023-12-22T18:54:41;5.30;;;5.00;;
56319;SDS011;42226;42.382;23.748;2023-12-22T18:57:09;5.30;;;4.90;;
56319;SDS011;42226;42.382;23.748;2023-12-22T18:59:35;5.22;;;4.93;;
56319;SDS011;42226;42.382;23.748;2023-12-22T19:02:03;5.10;;;4.80;;
56319;SDS011;42226;42.382;23.748;2023-12-22T19:04:29;5.10;;;4.80;;
56319;SDS011;42226;42.382;23.748;2023-12-22T19:06:57;5.10;;;4.80;;
56319;SDS011;42226;42.382;23.748;2023-12-22T19:09:25;5.13;;;4.82;;
56319;SDS011;42226;42.382;23.748;2023-12-22T19:11:55;5.00;;;4.70;;
56319;SDS011;42226;42.382;23.748;2023-12-22T19:14:24;5.35;;;5.05;;
56319;SDS011;42226;42.382;23.748;2023-12-22T19:16:51;4.97;;;4.70;;
56319;SDS011;42226;42.382;23.748;2023-12-22T19:19:19;4.90;;;4.70;;
56319;SDS011;42226;42.382;23.748;2023-12-22T19:21:46;5.05;;;4.70;;
56319;SDS011;42226;42.382;23.748;2023-12-22T19:24:13;5.20;;;4.90;;
56319;SDS011;42226;42.382;23.748;2023-12-22T19:26:39;5.00;;;4.72;;
56319;SDS011;42226;42.382;23.748;2023-12-22T19:29:07;5.18;;;4.70;;
56319;SDS011;42226;42.382;23.748;2023-12-22T19:31:34;5.40;;;5.10;;